createdAt,value
2023-04-27T00:00:19.536Z,438.00
2023-04-27T00:01:19.606Z,439.00
2023-04-27T00:02:19.826Z,442.00
2023-04-27T00:03:19.878Z,443.00
2023-04-27T00:04:19.907Z,445.00
2023-04-27T00:05:19.885Z,445.00
2023-04-27T00:06:19.914Z,444.00
2023-04-27T00:07:19.956Z,443.00
2023-04-27T00:08:20.023Z,443.00
2023-04-27T00:09:20.069Z,441.00
2023-04-27T00:10:20.129Z,440.00
2023-04-27T00:11:20.185Z,441.00
2023-04-27T00:12:20.232Z,441.00
2023-04-27T00:13:20.288Z,443.00
2023-04-27T00:14:20.366Z,444.00
2023-04-27T00:15:20.426Z,443.00
2023-04-27T00:16:20.520Z,441.00
2023-04-27T00:17:20.558Z,441.00
2023-04-27T00:18:20.578Z,441.00
2023-04-27T00:19:20.654Z,437.00
2023-04-27T00:20:20.752Z,438.00
2023-04-27T00:21:20.817Z,440.00
2023-04-27T00:22:20.840Z,439.00
2023-04-27T00:23:20.901Z,438.00
2023-04-27T00:24:20.947Z,439.00
2023-04-27T00:25:20.981Z,436.00
2023-04-27T00:26:21.035Z,436.00
2023-04-27T00:27:21.113Z,434.00
2023-04-27T00:28:21.172Z,435.00
2023-04-27T00:29:21.234Z,434.00
2023-04-27T00:30:21.295Z,434.00
2023-04-27T00:31:21.436Z,434.00
2023-04-27T00:32:21.529Z,435.00
2023-04-27T00:33:21.472Z,435.00
2023-04-27T00:34:21.535Z,436.00
2023-04-27T00:35:21.592Z,436.00
2023-04-27T00:36:21.641Z,438.00
2023-04-27T00:37:21.693Z,441.00
2023-04-27T00:38:21.731Z,442.00
2023-04-27T00:39:21.778Z,441.00
2023-04-27T00:40:21.851Z,440.00
2023-04-27T00:41:21.914Z,437.00
2023-04-27T00:42:21.965Z,437.00
2023-04-27T00:43:22.034Z,440.00
2023-04-27T00:44:22.063Z,440.00
2023-04-27T00:45:22.134Z,437.00
2023-04-27T00:46:22.196Z,434.00
2023-04-27T00:47:22.266Z,435.00
2023-04-27T00:48:22.314Z,436.00
2023-04-27T00:49:22.404Z,438.00
2023-04-27T00:50:22.419Z,440.00
2023-04-27T00:51:22.471Z,439.00
2023-04-27T00:52:22.541Z,436.00
2023-04-27T00:53:22.608Z,433.00
2023-04-27T00:54:22.633Z,433.00
2023-04-27T00:55:22.705Z,435.00
2023-04-27T00:56:22.756Z,435.00
2023-04-27T00:57:22.783Z,435.00
2023-04-27T00:58:22.822Z,433.00
2023-04-27T00:59:22.871Z,432.00
2023-04-27T01:00:22.919Z,431.00
2023-04-27T01:01:23.019Z,431.00
2023-04-27T01:02:23.133Z,432.00
2023-04-27T01:03:23.211Z,435.00
2023-04-27T01:04:23.234Z,433.00
2023-04-27T01:05:23.140Z,433.00
2023-04-27T01:06:23.184Z,433.00
2023-04-27T01:07:23.233Z,433.00
2023-04-27T01:08:23.257Z,430.00
2023-04-27T01:09:23.316Z,431.00
2023-04-27T01:10:23.354Z,431.00
2023-04-27T01:11:23.424Z,432.00
2023-04-27T01:12:23.493Z,433.00
2023-04-27T01:13:23.544Z,433.00
2023-04-27T01:14:23.587Z,435.00
2023-04-27T01:15:23.635Z,434.00
2023-04-27T01:16:23.694Z,433.00
2023-04-27T01:17:23.759Z,431.00
2023-04-27T01:18:23.760Z,431.00
2023-04-27T01:19:23.831Z,431.00
2023-04-27T01:20:23.881Z,432.00
2023-04-27T01:21:23.916Z,432.00
2023-04-27T01:22:23.963Z,434.00
2023-04-27T01:23:24.019Z,434.00
2023-04-27T01:24:24.042Z,434.00
2023-04-27T01:25:24.095Z,434.00
2023-04-27T01:26:24.131Z,433.00
2023-04-27T01:27:24.173Z,437.00
2023-04-27T01:28:24.239Z,436.00
2023-04-27T01:29:24.313Z,438.00
2023-04-27T01:30:24.356Z,437.00
2023-04-27T01:31:24.436Z,438.00
2023-04-27T01:32:24.444Z,438.00
2023-04-27T01:33:24.502Z,437.00
2023-04-27T01:34:24.534Z,438.00
2023-04-27T01:35:25.699Z,439.00
2023-04-27T01:36:24.555Z,437.00
2023-04-27T01:37:24.543Z,434.00
2023-04-27T01:38:24.538Z,432.00
2023-04-27T01:39:24.549Z,432.00
2023-04-27T01:40:24.541Z,435.00
2023-04-27T01:41:24.536Z,434.00
2023-04-27T01:42:24.528Z,432.00
2023-04-27T01:43:24.529Z,431.00
2023-04-27T01:44:24.516Z,430.00
2023-04-27T01:45:24.511Z,432.00
2023-04-27T01:46:24.585Z,435.00
2023-04-27T01:47:24.504Z,433.00
2023-04-27T01:48:24.490Z,429.00
2023-04-27T01:49:24.483Z,430.00
2023-04-27T01:50:24.472Z,431.00
2023-04-27T01:51:24.461Z,431.00
2023-04-27T01:52:24.468Z,433.00
2023-04-27T01:53:24.452Z,434.00
2023-04-27T01:54:25.596Z,435.00
2023-04-27T01:55:24.450Z,436.00
2023-04-27T01:56:24.443Z,436.00
2023-04-27T01:57:24.494Z,433.00
2023-04-27T01:58:24.543Z,431.00
2023-04-27T01:59:24.577Z,432.00
2023-04-27T02:00:24.651Z,432.00
2023-04-27T02:01:24.723Z,432.00
2023-04-27T02:02:24.894Z,431.00
2023-04-27T02:03:24.931Z,432.00
2023-04-27T02:04:24.897Z,431.00
2023-04-27T02:05:24.914Z,431.00
2023-04-27T02:06:24.985Z,431.00
2023-04-27T02:07:25.018Z,431.00
2023-04-27T02:08:25.057Z,430.00
2023-04-27T02:09:25.140Z,433.00
2023-04-27T02:10:25.197Z,433.00
2023-04-27T02:11:25.238Z,435.00
2023-04-27T02:12:25.307Z,439.00
2023-04-27T02:13:25.376Z,438.00
2023-04-27T02:14:25.450Z,439.00
2023-04-27T02:15:25.510Z,438.00
2023-04-27T02:16:25.660Z,439.00
2023-04-27T02:17:25.610Z,438.00
2023-04-27T02:18:25.674Z,438.00
2023-04-27T02:19:25.714Z,437.00
2023-04-27T02:20:25.778Z,435.00
2023-04-27T02:21:25.834Z,436.00
2023-04-27T02:22:25.863Z,436.00
2023-04-27T02:23:25.916Z,434.00
2023-04-27T02:24:25.960Z,435.00
2023-04-27T02:25:25.994Z,434.00
2023-04-27T02:26:26.011Z,434.00
2023-04-27T02:27:26.067Z,433.00
2023-04-27T02:28:26.145Z,432.00
2023-04-27T02:29:26.197Z,432.00
2023-04-27T02:30:26.264Z,432.00
2023-04-27T02:31:26.347Z,434.00
2023-04-27T02:32:26.393Z,433.00
2023-04-27T02:33:26.435Z,434.00
2023-04-27T02:34:26.477Z,434.00
2023-04-27T02:35:26.562Z,432.00
2023-04-27T02:36:26.587Z,433.00
2023-04-27T02:37:26.619Z,434.00
2023-04-27T02:38:26.643Z,435.00
2023-04-27T02:39:26.685Z,434.00
2023-04-27T02:40:26.714Z,435.00
2023-04-27T02:41:26.741Z,434.00
2023-04-27T02:42:26.795Z,435.00
2023-04-27T02:43:26.830Z,436.00
2023-04-27T02:44:26.885Z,436.00
2023-04-27T02:45:26.901Z,437.00
2023-04-27T02:46:27.053Z,436.00
2023-04-27T02:47:27.000Z,437.00
2023-04-27T02:48:26.989Z,438.00
2023-04-27T02:49:27.036Z,439.00
2023-04-27T02:50:27.103Z,439.00
2023-04-27T02:51:27.129Z,439.00
2023-04-27T02:52:27.184Z,441.00
2023-04-27T02:53:27.214Z,442.00
2023-04-27T02:54:27.271Z,441.00
2023-04-27T02:55:27.295Z,440.00
2023-04-27T02:56:27.338Z,442.00
2023-04-27T02:57:27.413Z,443.00
2023-04-27T02:58:27.475Z,443.00
2023-04-27T02:59:27.502Z,447.00
2023-04-27T03:00:27.547Z,447.00
2023-04-27T03:01:27.601Z,446.00
2023-04-27T03:02:27.732Z,449.00
2023-04-27T03:03:27.861Z,449.00
2023-04-27T03:04:27.941Z,451.00
2023-04-27T03:05:27.801Z,452.00
2023-04-27T03:06:27.849Z,451.00
2023-04-27T03:07:27.882Z,449.00
2023-04-27T03:08:27.934Z,449.00
2023-04-27T03:09:27.995Z,446.00
2023-04-27T03:10:28.018Z,446.00
2023-04-27T03:11:28.084Z,443.00
2023-04-27T03:12:28.133Z,443.00
2023-04-27T03:13:28.178Z,442.00
2023-04-27T03:14:28.264Z,442.00
2023-04-27T03:15:28.313Z,439.00
2023-04-27T03:16:28.442Z,436.00
2023-04-27T03:17:28.477Z,435.00
2023-04-27T03:18:28.497Z,439.00
2023-04-27T03:19:28.518Z,439.00
2023-04-27T03:20:28.569Z,438.00
2023-04-27T03:21:28.604Z,439.00
2023-04-27T03:22:28.622Z,441.00
2023-04-27T03:23:28.652Z,438.00
2023-04-27T03:24:28.717Z,438.00
2023-04-27T03:25:28.759Z,437.00
2023-04-27T03:26:28.809Z,438.00
2023-04-27T03:27:28.852Z,440.00
2023-04-27T03:28:28.887Z,441.00
2023-04-27T03:29:28.926Z,442.00
2023-04-27T03:30:28.972Z,444.00
2023-04-27T03:31:29.103Z,441.00
2023-04-27T03:32:29.089Z,439.00
2023-04-27T03:33:29.095Z,442.00
2023-04-27T03:34:29.118Z,442.00
2023-04-27T03:35:29.189Z,443.00
2023-04-27T03:36:29.232Z,445.00
2023-04-27T03:37:29.271Z,445.00
2023-04-27T03:38:29.329Z,446.00
2023-04-27T03:39:29.358Z,447.00
2023-04-27T03:40:29.405Z,450.00
2023-04-27T03:41:29.431Z,449.00
2023-04-27T03:42:29.503Z,449.00
2023-04-27T03:43:29.545Z,448.00
2023-04-27T03:44:29.612Z,446.00
2023-04-27T03:45:29.662Z,450.00
2023-04-27T03:46:29.711Z,450.00
2023-04-27T03:47:29.806Z,450.00
2023-04-27T03:48:29.825Z,452.00
2023-04-27T03:49:29.845Z,451.00
2023-04-27T03:50:30.365Z,452.00
2023-04-27T03:51:29.936Z,451.00
2023-04-27T03:52:29.978Z,453.00
2023-04-27T03:53:30.059Z,450.00
2023-04-27T03:54:30.079Z,450.00
2023-04-27T03:55:30.139Z,450.00
2023-04-27T03:56:30.207Z,449.00
2023-04-27T03:57:30.240Z,450.00
2023-04-27T03:58:30.311Z,449.00
2023-04-27T03:59:30.396Z,447.00
2023-04-27T04:00:30.419Z,447.00
2023-04-27T04:01:30.477Z,444.00
2023-04-27T04:02:30.603Z,442.00
2023-04-27T04:03:30.807Z,444.00
2023-04-27T04:04:30.736Z,446.00
2023-04-27T04:05:30.683Z,444.00
2023-04-27T04:06:30.752Z,442.00
2023-04-27T04:07:30.803Z,442.00
2023-04-27T04:08:30.852Z,442.00
2023-04-27T04:09:30.912Z,442.00
2023-04-27T04:10:30.933Z,443.00
2023-04-27T04:11:30.990Z,444.00
2023-04-27T04:12:31.038Z,446.00
2023-04-27T04:13:31.083Z,446.00
2023-04-27T04:14:31.163Z,448.00
2023-04-27T04:15:31.198Z,449.00
2023-04-27T04:16:31.298Z,450.00
2023-04-27T04:17:31.349Z,451.00
2023-04-27T04:18:31.354Z,450.00
2023-04-27T04:19:31.406Z,450.00
2023-04-27T04:20:31.470Z,449.00
2023-04-27T04:21:31.486Z,451.00
2023-04-27T04:22:31.524Z,453.00
2023-04-27T04:23:31.562Z,452.00
2023-04-27T04:24:31.600Z,451.00
2023-04-27T04:25:31.631Z,450.00
2023-04-27T04:26:31.673Z,451.00
2023-04-27T04:27:31.761Z,451.00
2023-04-27T04:28:31.774Z,448.00
2023-04-27T04:29:31.851Z,448.00
2023-04-27T04:30:31.897Z,444.00
2023-04-27T04:31:31.959Z,440.00
2023-04-27T04:32:32.038Z,441.00
2023-04-27T04:33:32.026Z,441.00
2023-04-27T04:34:32.098Z,439.00
2023-04-27T04:35:32.129Z,436.00
2023-04-27T04:36:32.226Z,436.00
2023-04-27T04:37:32.239Z,437.00
2023-04-27T04:38:32.262Z,438.00
2023-04-27T04:39:32.313Z,438.00
2023-04-27T04:40:32.362Z,437.00
2023-04-27T04:41:32.425Z,438.00
2023-04-27T04:42:32.474Z,439.00
2023-04-27T04:43:32.541Z,439.00
2023-04-27T04:44:32.593Z,440.00
2023-04-27T04:45:32.668Z,443.00
2023-04-27T04:46:32.752Z,444.00
2023-04-27T04:47:32.875Z,448.00
2023-04-27T04:48:32.856Z,449.00
2023-04-27T04:49:32.891Z,448.00
2023-04-27T04:50:32.944Z,447.00
2023-04-27T04:51:32.967Z,448.00
2023-04-27T04:52:33.014Z,449.00
2023-04-27T04:53:33.054Z,447.00
2023-04-27T04:54:33.101Z,446.00
2023-04-27T04:55:33.140Z,443.00
2023-04-27T04:56:33.223Z,441.00
2023-04-27T04:57:33.269Z,443.00
2023-04-27T04:58:33.324Z,444.00
2023-04-27T04:59:33.372Z,442.00
2023-04-27T05:00:33.419Z,440.00
2023-04-27T05:01:33.502Z,441.00
2023-04-27T05:02:33.579Z,440.00
2023-04-27T05:03:33.690Z,441.00
2023-04-27T05:04:33.641Z,444.00
2023-04-27T05:05:33.617Z,448.00
2023-04-27T05:06:33.704Z,451.00
2023-04-27T05:07:33.737Z,453.00
2023-04-27T05:08:33.769Z,453.00
2023-04-27T05:09:33.816Z,456.00
2023-04-27T05:10:33.867Z,454.00
2023-04-27T05:11:33.906Z,457.00
2023-04-27T05:12:33.917Z,461.00
2023-04-27T05:13:33.987Z,462.00
2023-04-27T05:14:34.051Z,464.00
2023-04-27T05:15:34.098Z,464.00
2023-04-27T05:16:34.235Z,467.00
2023-04-27T05:17:34.281Z,471.00
2023-04-27T05:18:34.305Z,471.00
2023-04-27T05:19:34.369Z,472.00
2023-04-27T05:20:34.445Z,471.00
2023-04-27T05:21:34.473Z,468.00
2023-04-27T05:22:34.525Z,471.00
2023-04-27T05:23:34.588Z,473.00
2023-04-27T05:24:34.644Z,475.00
2023-04-27T05:25:34.704Z,475.00
2023-04-27T05:26:34.794Z,473.00
2023-04-27T05:27:34.806Z,481.00
2023-04-27T05:28:34.858Z,488.00
2023-04-27T05:29:34.930Z,507.00
2023-04-27T05:30:35.000Z,554.00
2023-04-27T05:31:35.094Z,553.00
2023-04-27T05:32:35.131Z,548.00
2023-04-27T05:33:35.156Z,548.00
2023-04-27T05:34:35.216Z,547.00
2023-04-27T05:35:35.330Z,548.00
2023-04-27T05:36:35.349Z,560.00
2023-04-27T05:37:35.853Z,566.00
2023-04-27T05:38:35.469Z,568.00
2023-04-27T05:39:35.537Z,570.00
2023-04-27T05:40:35.834Z,581.00
2023-04-27T05:41:35.638Z,588.00
2023-04-27T05:42:35.846Z,621.00
2023-04-27T05:43:35.773Z,730.00
2023-04-27T05:44:35.809Z,741.00
2023-04-27T05:45:35.878Z,739.00
2023-04-27T05:46:38.377Z,747.00
2023-04-27T05:47:35.917Z,790.00
2023-04-27T05:48:35.889Z,797.00
2023-04-27T05:49:35.899Z,802.00
2023-04-27T05:50:35.884Z,802.00
2023-04-27T05:51:35.866Z,807.00
2023-04-27T05:52:37.617Z,811.00
2023-04-27T05:53:35.852Z,814.00
2023-04-27T05:54:35.836Z,817.00
2023-04-27T05:55:35.854Z,824.00
2023-04-27T05:56:35.821Z,832.00
2023-04-27T05:57:35.844Z,836.00
2023-04-27T05:58:35.811Z,846.00
2023-04-27T05:59:35.810Z,859.00
2023-04-27T06:00:35.797Z,863.00
2023-04-27T06:01:35.816Z,871.00
2023-04-27T06:02:35.931Z,879.00
2023-04-27T06:03:35.955Z,891.00
2023-04-27T06:04:35.818Z,898.00
2023-04-27T06:05:35.837Z,906.00
2023-04-27T06:06:35.837Z,915.00
2023-04-27T06:07:35.854Z,936.00
2023-04-27T06:08:35.860Z,942.00
2023-04-27T06:09:35.846Z,958.00
2023-04-27T06:10:35.862Z,999.00
2023-04-27T06:11:35.853Z,996.00
2023-04-27T06:12:36.375Z,1001.00
2023-04-27T06:13:35.877Z,895.00
2023-04-27T06:14:35.887Z,940.00
2023-04-27T06:15:35.928Z,972.00
2023-04-27T06:16:35.942Z,973.00
2023-04-27T06:17:35.904Z,971.00
2023-04-27T06:18:35.883Z,935.00
2023-04-27T06:19:35.905Z,948.00
2023-04-27T06:20:35.917Z,960.00
2023-04-27T06:21:35.899Z,963.00
2023-04-27T06:22:35.924Z,967.00
2023-04-27T06:23:35.956Z,975.00
2023-04-27T06:24:35.975Z,972.00
2023-04-27T06:25:36.024Z,967.00
2023-04-27T06:26:36.063Z,967.00
2023-04-27T06:27:36.083Z,971.00
2023-04-27T06:28:36.127Z,965.00
2023-04-27T06:29:36.179Z,968.00
2023-04-27T06:30:37.661Z,852.00
2023-04-27T06:31:36.216Z,869.00
2023-04-27T06:32:36.228Z,849.00
2023-04-27T06:33:36.191Z,862.00
2023-04-27T06:34:36.176Z,869.00
2023-04-27T06:35:36.383Z,903.00
2023-04-27T06:36:36.185Z,902.00
2023-04-27T06:37:36.161Z,918.00
2023-04-27T06:38:36.178Z,993.00
2023-04-27T06:39:36.158Z,1020.00
2023-04-27T06:40:36.153Z,1037.00
2023-04-27T06:41:36.144Z,1045.00
2023-04-27T06:42:36.433Z,1103.00
2023-04-27T06:43:36.131Z,1128.00
2023-04-27T06:44:36.126Z,1126.00
2023-04-27T06:45:36.214Z,1119.00
2023-04-27T06:46:36.224Z,1126.00
2023-04-27T06:47:36.379Z,1142.00
2023-04-27T06:48:36.114Z,1139.00
2023-04-27T06:49:36.082Z,1094.00
2023-04-27T06:50:36.088Z,1133.00
2023-04-27T06:51:36.072Z,1140.00
2023-04-27T06:52:36.090Z,1137.00
2023-04-27T06:53:36.092Z,1126.00
2023-04-27T06:54:36.054Z,1111.00
2023-04-27T06:55:36.063Z,1102.00
2023-04-27T06:56:36.142Z,1092.00
2023-04-27T06:57:36.055Z,1080.00
2023-04-27T06:58:36.024Z,1074.00
2023-04-27T06:59:36.017Z,1067.00
2023-04-27T07:00:36.374Z,887.00
2023-04-27T07:01:36.019Z,1029.00
2023-04-27T07:02:36.102Z,1051.00
2023-04-27T07:03:36.114Z,1054.00
2023-04-27T07:04:36.013Z,1055.00
2023-04-27T07:05:36.002Z,1056.00
2023-04-27T07:06:35.983Z,1052.00
2023-04-27T07:07:35.974Z,1054.00
2023-04-27T07:08:36.419Z,1054.00
2023-04-27T07:09:35.981Z,975.00
2023-04-27T07:10:35.982Z,1017.00
2023-04-27T07:11:35.957Z,1027.00
2023-04-27T07:12:35.939Z,1014.00
2023-04-27T07:13:35.960Z,1042.00
2023-04-27T07:14:35.988Z,992.00
2023-04-27T07:15:35.933Z,913.00
2023-04-27T07:16:35.954Z,936.00
2023-04-27T07:17:35.916Z,1059.00
2023-04-27T07:18:36.395Z,931.00
2023-04-27T07:19:35.917Z,958.00
2023-04-27T07:20:35.875Z,979.00
2023-04-27T07:21:35.892Z,981.00
2023-04-27T07:22:35.942Z,980.00
2023-04-27T07:23:36.399Z,945.00
2023-04-27T07:24:36.042Z,963.00
2023-04-27T07:25:36.103Z,983.00
2023-04-27T07:26:36.161Z,983.00
2023-04-27T07:27:36.223Z,991.00
2023-04-27T07:28:36.415Z,905.00
2023-04-27T07:29:36.353Z,963.00
2023-04-27T07:30:36.417Z,960.00
2023-04-27T07:31:36.518Z,973.00
2023-04-27T07:32:36.559Z,996.00
2023-04-27T07:33:36.612Z,1012.00
2023-04-27T07:34:49.006Z,1021.00
2023-04-27T07:35:37.650Z,1024.00
2023-04-27T07:36:36.625Z,1033.00
2023-04-27T07:37:36.625Z,1077.00
2023-04-27T07:38:36.617Z,1081.00
2023-04-27T07:39:36.602Z,1033.00
2023-04-27T07:40:36.609Z,1041.00
2023-04-27T07:41:36.595Z,1046.00
2023-04-27T07:42:36.584Z,1047.00
2023-04-27T07:43:36.580Z,1058.00
2023-04-27T07:44:36.582Z,1073.00
2023-04-27T07:45:36.637Z,1079.00
2023-04-27T07:46:36.659Z,1075.00
2023-04-27T07:47:36.719Z,1067.00
2023-04-27T07:48:36.744Z,1059.00
2023-04-27T07:49:36.791Z,1005.00
2023-04-27T07:50:36.864Z,923.00
2023-04-27T07:51:36.905Z,969.00
2023-04-27T07:52:36.959Z,981.00
2023-04-27T07:53:37.005Z,987.00
2023-04-27T07:54:37.037Z,994.00
2023-04-27T07:55:37.092Z,993.00
2023-04-27T07:56:37.135Z,908.00
2023-04-27T07:57:37.180Z,914.00
2023-04-27T07:58:37.248Z,932.00
2023-04-27T07:59:37.298Z,954.00
2023-04-27T08:00:37.329Z,969.00
2023-04-27T08:01:37.420Z,917.00
2023-04-27T08:02:37.675Z,897.00
2023-04-27T08:03:37.646Z,913.00
2023-04-27T08:04:37.840Z,935.00
2023-04-27T08:05:37.719Z,940.00
2023-04-27T08:06:38.356Z,857.00
2023-04-27T08:07:42.780Z,873.00
2023-04-27T08:08:38.936Z,839.00
2023-04-27T08:09:37.654Z,875.00
2023-04-27T08:10:37.647Z,911.00
2023-04-27T08:11:37.627Z,931.00
2023-04-27T08:12:37.633Z,939.00
2023-04-27T08:13:37.621Z,943.00
2023-04-27T08:14:37.616Z,946.00
2023-04-27T08:15:37.647Z,949.00
2023-04-27T08:16:37.728Z,871.00
2023-04-27T08:17:37.608Z,917.00
2023-04-27T08:18:37.597Z,943.00
2023-04-27T08:19:37.576Z,969.00
2023-04-27T08:20:37.573Z,966.00
2023-04-27T08:21:37.624Z,870.00
2023-04-27T08:22:37.668Z,842.00
2023-04-27T08:23:37.727Z,771.00
2023-04-27T08:24:37.808Z,815.00
2023-04-27T08:25:37.863Z,812.00
2023-04-27T08:26:37.884Z,824.00
2023-04-27T08:27:37.875Z,816.00
2023-04-27T08:28:37.878Z,795.00
2023-04-27T08:29:37.865Z,737.00
2023-04-27T08:30:37.870Z,740.00
2023-04-27T08:31:37.909Z,745.00
2023-04-27T08:32:37.919Z,750.00
2023-04-27T08:33:37.876Z,763.00
2023-04-27T08:34:37.886Z,749.00
2023-04-27T08:35:37.886Z,729.00
2023-04-27T08:36:37.894Z,638.00
2023-04-27T08:37:37.906Z,615.00
2023-04-27T08:38:37.958Z,631.00
2023-04-27T08:39:38.011Z,728.00
2023-04-27T08:40:38.106Z,749.00
2023-04-27T08:41:38.421Z,730.00
2023-04-27T08:42:38.195Z,731.00
2023-04-27T08:43:38.252Z,734.00
2023-04-27T08:44:38.326Z,732.00
2023-04-27T08:45:38.564Z,742.00
2023-04-27T08:46:38.464Z,749.00
2023-04-27T08:47:43.390Z,757.00
2023-04-27T08:48:39.465Z,756.00
2023-04-27T08:49:38.455Z,755.00
2023-04-27T08:50:38.454Z,753.00
2023-04-27T08:51:38.453Z,782.00
2023-04-27T08:52:38.445Z,787.00
2023-04-27T08:53:38.933Z,773.00
2023-04-27T08:54:38.419Z,773.00
2023-04-27T08:55:38.423Z,782.00
2023-04-27T08:56:38.402Z,802.00
2023-04-27T08:57:38.395Z,823.00
2023-04-27T08:58:38.454Z,835.00
2023-04-27T08:59:38.390Z,849.00
2023-04-27T09:00:38.373Z,845.00
2023-04-27T09:01:38.407Z,808.00
2023-04-27T09:02:38.493Z,785.00
2023-04-27T09:03:38.535Z,764.00
2023-04-27T09:04:38.492Z,768.00
2023-04-27T09:05:44.152Z,725.00
2023-04-27T09:06:39.425Z,733.00
2023-04-27T09:07:38.424Z,805.00
2023-04-27T09:08:38.403Z,833.00
2023-04-27T09:09:38.438Z,756.00
2023-04-27T09:10:38.404Z,793.00
2023-04-27T09:11:38.404Z,755.00
2023-04-27T09:12:38.372Z,744.00
2023-04-27T09:13:38.380Z,729.00
2023-04-27T09:14:38.376Z,748.00
2023-04-27T09:15:38.360Z,751.00
2023-04-27T09:16:38.390Z,742.00
2023-04-27T09:17:38.377Z,757.00
2023-04-27T09:18:38.380Z,789.00
2023-04-27T09:19:38.330Z,805.00
2023-04-27T09:20:38.337Z,822.00
2023-04-27T09:21:38.317Z,823.00
2023-04-27T09:22:38.324Z,816.00
2023-04-27T09:23:38.354Z,807.00
2023-04-27T09:24:38.320Z,751.00
2023-04-27T09:25:38.324Z,765.00
2023-04-27T09:26:38.310Z,666.00
2023-04-27T09:27:38.286Z,656.00
2023-04-27T09:28:38.489Z,650.00
2023-04-27T09:29:38.299Z,747.00
2023-04-27T09:30:38.281Z,758.00
2023-04-27T09:31:38.470Z,784.00
2023-04-27T09:32:38.294Z,807.00
2023-04-27T09:33:38.258Z,859.00
2023-04-27T09:34:38.222Z,865.00
2023-04-27T09:35:38.229Z,882.00
2023-04-27T09:36:38.454Z,897.00
2023-04-27T09:37:38.211Z,922.00
2023-04-27T09:38:38.207Z,935.00
2023-04-27T09:39:38.202Z,952.00
2023-04-27T09:40:38.241Z,967.00
2023-04-27T09:41:38.454Z,982.00
2023-04-27T09:42:38.329Z,983.00
2023-04-27T09:43:38.377Z,971.00
2023-04-27T09:44:38.404Z,991.00
2023-04-27T09:45:38.481Z,998.00
2023-04-27T09:46:38.465Z,1038.00
2023-04-27T09:47:38.512Z,1041.00
2023-04-27T09:48:38.521Z,1037.00
2023-04-27T09:49:38.522Z,1029.00
2023-04-27T09:50:38.541Z,1023.00
2023-04-27T09:51:38.972Z,1021.00
2023-04-27T09:52:38.544Z,1025.00
2023-04-27T09:53:38.544Z,1042.00
2023-04-27T09:54:38.533Z,1067.00
2023-04-27T09:55:38.569Z,1070.00
2023-04-27T09:56:38.943Z,1065.00
2023-04-27T09:57:38.573Z,1060.00
2023-04-27T09:58:38.593Z,1046.00
2023-04-27T09:59:38.947Z,1037.00
2023-04-27T10:00:38.667Z,1031.00
2023-04-27T10:01:38.722Z,1025.00
2023-04-27T10:02:52.181Z,1026.00
2023-04-27T10:03:39.847Z,1032.00
2023-04-27T10:04:38.886Z,1033.00
2023-04-27T10:05:38.761Z,1027.00
2023-04-27T10:06:38.768Z,1020.00
2023-04-27T10:07:38.743Z,1048.00
2023-04-27T10:08:38.747Z,1047.00
2023-04-27T10:09:38.741Z,1033.00
2023-04-27T10:10:38.751Z,1032.00
2023-04-27T10:11:38.732Z,1036.00
2023-04-27T10:12:38.778Z,1040.00
2023-04-27T10:13:38.822Z,1046.00
2023-04-27T10:14:38.873Z,1057.00
2023-04-27T10:15:38.893Z,1065.00
2023-04-27T10:16:38.965Z,1074.00
2023-04-27T10:17:39.012Z,1081.00
2023-04-27T10:18:38.986Z,1083.00
2023-04-27T10:19:39.048Z,1083.00
2023-04-27T10:20:39.056Z,1085.00
2023-04-27T10:21:39.064Z,1085.00
2023-04-27T10:22:39.095Z,939.00
2023-04-27T10:23:39.141Z,959.00
2023-04-27T10:24:39.175Z,958.00
2023-04-27T10:25:39.208Z,969.00
2023-04-27T10:26:40.025Z,969.00
2023-04-27T10:27:39.336Z,989.00
2023-04-27T10:28:39.394Z,999.00
2023-04-27T10:29:39.428Z,1010.00
2023-04-27T10:30:39.699Z,1019.00
2023-04-27T10:31:39.994Z,1021.00
2023-04-27T10:32:39.583Z,1028.00
2023-04-27T10:33:39.588Z,1045.00
2023-04-27T10:34:39.649Z,1052.00
2023-04-27T10:35:39.651Z,1051.00
2023-04-27T10:36:39.662Z,1054.00
2023-04-27T10:37:39.709Z,1042.00
2023-04-27T10:38:39.723Z,1029.00
2023-04-27T10:39:46.969Z,1033.00
2023-04-27T10:40:40.753Z,979.00
2023-04-27T10:41:39.745Z,854.00
2023-04-27T10:42:39.754Z,480.00
2023-04-27T10:43:39.731Z,581.00
2023-04-27T10:44:39.726Z,444.00
2023-04-27T10:45:39.737Z,505.00
2023-04-27T10:46:39.796Z,461.00
2023-04-27T10:47:39.736Z,439.00
2023-04-27T10:48:39.708Z,447.00
2023-04-27T10:49:39.693Z,432.00
2023-04-27T10:50:39.701Z,413.00
2023-04-27T10:51:39.999Z,455.00
2023-04-27T10:52:39.672Z,434.00
2023-04-27T10:53:39.720Z,420.00
2023-04-27T10:54:39.978Z,432.00
2023-04-27T10:55:39.758Z,436.00
2023-04-27T10:56:39.981Z,449.00
2023-04-27T10:57:40.168Z,436.00
2023-04-27T10:59:39.866Z,419.00
2023-04-27T11:00:39.856Z,430.00
2023-04-27T11:01:39.867Z,461.00
2023-04-27T11:02:39.921Z,435.00
2023-04-27T11:03:40.050Z,421.00
2023-04-27T11:04:39.837Z,418.00
2023-04-27T11:05:39.823Z,432.00
2023-04-27T11:06:39.834Z,427.00
2023-04-27T11:07:39.831Z,430.00
2023-04-27T11:08:39.849Z,430.00
2023-04-27T11:09:39.794Z,433.00
2023-04-27T11:10:39.789Z,444.00
2023-04-27T11:11:39.803Z,468.00
2023-04-27T11:12:39.805Z,444.00
2023-04-27T11:13:39.800Z,424.00
2023-04-27T11:14:39.756Z,432.00
2023-04-27T11:15:39.773Z,441.00
2023-04-27T11:16:40.061Z,436.00
2023-04-27T11:17:39.803Z,433.00
2023-04-27T11:18:39.736Z,434.00
2023-04-27T11:19:39.717Z,418.00
2023-04-27T11:20:39.718Z,438.00
2023-04-27T11:21:40.001Z,439.00
2023-04-27T11:22:39.725Z,425.00
2023-04-27T11:23:39.706Z,422.00
2023-04-27T11:24:39.715Z,433.00
2023-04-27T11:25:39.693Z,439.00
2023-04-27T11:26:39.690Z,445.00
2023-04-27T11:27:39.684Z,451.00
2023-04-27T11:28:39.676Z,458.00
2023-04-27T11:29:39.701Z,482.00
2023-04-27T11:30:39.649Z,518.00
2023-04-27T11:31:39.712Z,503.00
2023-04-27T11:32:39.680Z,500.00
2023-04-27T11:33:39.642Z,501.00
2023-04-27T11:34:39.639Z,503.00
2023-04-27T11:35:39.632Z,507.00
2023-04-27T11:36:39.607Z,512.00
2023-04-27T11:37:39.618Z,511.00
2023-04-27T11:38:39.681Z,508.00
2023-04-27T11:39:39.602Z,506.00
2023-04-27T11:40:39.578Z,506.00
2023-04-27T11:41:39.598Z,506.00
2023-04-27T11:42:39.583Z,509.00
2023-04-27T11:43:39.558Z,512.00
2023-04-27T11:44:39.574Z,515.00
2023-04-27T11:45:39.567Z,514.00
2023-04-27T11:46:39.596Z,514.00
2023-04-27T11:47:39.579Z,515.00
2023-04-27T11:48:39.565Z,513.00
2023-04-27T11:49:39.544Z,512.00
2023-04-27T11:50:39.519Z,512.00
2023-04-27T11:51:39.521Z,515.00
2023-04-27T11:52:39.514Z,516.00
2023-04-27T11:53:39.543Z,516.00
2023-04-27T11:54:39.556Z,516.00
2023-04-27T11:55:39.479Z,514.00
2023-04-27T11:56:39.502Z,515.00
2023-04-27T11:57:39.464Z,515.00
2023-04-27T11:58:39.621Z,516.00
2023-04-27T11:59:39.468Z,513.00
2023-04-27T12:00:39.445Z,512.00
2023-04-27T12:01:39.461Z,511.00
2023-04-27T12:02:39.621Z,510.00
2023-04-27T12:03:39.705Z,511.00
2023-04-27T12:04:39.741Z,512.00
2023-04-27T12:05:39.680Z,512.00
2023-04-27T12:06:39.769Z,508.00
2023-04-27T12:07:39.721Z,503.00
2023-04-27T12:08:39.750Z,502.00
2023-04-27T12:09:39.769Z,504.00
2023-04-27T12:10:39.802Z,504.00
2023-04-27T12:11:39.842Z,504.00
2023-04-27T12:12:39.877Z,506.00
2023-04-27T12:13:39.912Z,505.00
2023-04-27T12:14:39.928Z,504.00
2023-04-27T12:15:39.954Z,503.00
2023-04-27T12:16:40.050Z,503.00
2023-04-27T12:17:40.075Z,501.00
2023-04-27T12:18:40.074Z,500.00
2023-04-27T12:19:40.097Z,501.00
2023-04-27T12:20:40.117Z,501.00
2023-04-27T12:21:40.124Z,502.00
2023-04-27T12:22:40.150Z,506.00
2023-04-27T12:23:40.188Z,504.00
2023-04-27T12:24:40.217Z,505.00
2023-04-27T12:25:40.273Z,506.00
2023-04-27T12:26:40.261Z,505.00